createdAt,value
2019-04-04T00:02:17.109Z,53.37
2019-04-04T00:04:44.137Z,53.65
2019-04-04T00:07:10.295Z,53.88
2019-04-04T00:09:36.484Z,54.00
2019-04-04T00:12:02.883Z,54.11
2019-04-04T00:14:29.140Z,54.25
2019-04-04T00:16:55.337Z,54.17
2019-04-04T00:19:21.553Z,54.43
2019-04-04T00:21:47.703Z,54.66
2019-04-04T00:24:14.082Z,54.88
2019-04-04T00:26:42.019Z,54.84
2019-04-04T00:29:09.034Z,55.07
2019-04-04T00:31:35.195Z,55.18
2019-04-04T00:34:01.407Z,55.08
2019-04-04T00:36:27.553Z,55.38
2019-04-04T00:38:53.879Z,55.23
2019-04-04T00:41:20.004Z,55.12
2019-04-04T00:43:46.267Z,55.15
2019-04-04T00:46:12.437Z,55.34
2019-04-04T00:48:38.664Z,55.56
2019-04-04T00:51:07.606Z,55.76
2019-04-04T00:53:33.217Z,55.86
2019-04-04T00:55:59.336Z,55.84
2019-04-04T00:58:25.555Z,55.88
2019-04-04T01:00:52.943Z,56.09
2019-04-04T01:03:19.804Z,56.30
2019-04-04T01:05:45.910Z,56.39
2019-04-04T01:08:12.135Z,56.28
2019-04-04T01:10:38.254Z,56.22
2019-04-04T01:13:04.719Z,56.19
2019-04-04T01:15:31.110Z,56.25
2019-04-04T01:17:58.169Z,56.09
2019-04-04T01:20:24.366Z,56.02
2019-04-04T01:22:51.698Z,56.05
2019-04-04T01:25:17.865Z,55.56
2019-04-04T01:27:44.044Z,55.37
2019-04-04T01:30:12.514Z,55.49
2019-04-04T01:32:38.435Z,55.63
2019-04-04T01:35:06.414Z,56.13
2019-04-04T01:37:33.812Z,56.48
2019-04-04T01:40:02.068Z,56.61
2019-04-04T01:42:28.160Z,56.89
2019-04-04T01:44:54.313Z,56.43
2019-04-04T01:47:20.565Z,56.58
2019-04-04T01:49:46.683Z,56.73
2019-04-04T01:52:12.888Z,57.46
2019-04-04T01:54:39.103Z,58.16
2019-04-04T01:57:07.820Z,59.03
2019-04-04T01:59:33.464Z,59.21
2019-04-04T02:01:59.647Z,59.39
2019-04-04T02:04:25.863Z,59.61
2019-04-04T02:06:52.027Z,60.45
2019-04-04T02:09:18.284Z,61.06
2019-04-04T02:11:44.442Z,61.47
2019-04-04T02:14:11.898Z,61.85
2019-04-04T02:16:38.783Z,61.94
2019-04-04T02:19:05.075Z,62.33
2019-04-04T02:21:31.271Z,62.52
2019-04-04T02:23:57.463Z,62.99
2019-04-04T02:26:23.937Z,63.90
2019-04-04T02:28:50.295Z,63.93
2019-04-04T02:31:20.606Z,64.23
2019-04-04T02:33:45.336Z,64.32
2019-04-04T02:36:16.166Z,64.92
2019-04-04T02:38:39.716Z,65.08
2019-04-04T02:41:05.977Z,65.50
2019-04-04T02:43:32.257Z,65.28
2019-04-04T02:45:59.616Z,66.16
2019-04-04T02:48:25.814Z,66.66
2019-04-04T02:50:51.973Z,66.62
2019-04-04T02:53:20.313Z,66.92
2019-04-04T02:55:46.201Z,66.95
2019-04-04T02:58:15.053Z,67.61
2019-04-04T03:00:40.475Z,67.36
2019-04-04T03:03:09.154Z,67.27
2019-04-04T03:05:34.971Z,67.51
2019-04-04T03:08:04.235Z,67.31
2019-04-04T03:10:29.499Z,67.24
2019-04-04T03:12:58.692Z,67.04
2019-04-04T03:15:23.893Z,67.14
2019-04-04T03:17:50.155Z,67.29
2019-04-04T03:20:17.466Z,67.14
2019-04-04T03:22:44.074Z,67.10
2019-04-04T03:25:14.454Z,67.06
2019-04-04T03:27:38.516Z,67.11
2019-04-04T03:30:13.548Z,67.41
2019-04-04T03:32:34.358Z,67.39
2019-04-04T03:35:00.728Z,67.15
2019-04-04T03:37:26.873Z,66.99
2019-04-04T03:39:53.537Z,66.95
2019-04-04T03:42:19.786Z,67.02
2019-04-04T03:44:46.003Z,66.83
2019-04-04T03:47:12.111Z,67.09
2019-04-04T03:49:38.360Z,66.96
2019-04-04T03:52:04.709Z,67.26
2019-04-04T03:54:30.845Z,67.37
2019-04-04T03:56:57.074Z,67.33
2019-04-04T03:59:23.227Z,67.79
2019-04-04T04:01:49.730Z,68.23
2019-04-04T04:04:15.894Z,68.89
2019-04-04T04:06:43.076Z,69.78
2019-04-04T04:09:09.423Z,70.67
2019-04-04T04:11:37.499Z,70.63
2019-04-04T04:14:03.717Z,70.52
2019-04-04T04:16:29.881Z,70.04
2019-04-04T04:18:56.038Z,69.80
2019-04-04T04:21:22.188Z,69.46
2019-04-04T04:23:50.022Z,69.47
2019-04-04T04:26:16.628Z,69.55
2019-04-04T04:28:42.845Z,69.85
2019-04-04T04:31:09.044Z,70.00
2019-04-04T04:33:35.208Z,69.85
2019-04-04T04:36:01.359Z,70.09
2019-04-04T04:38:27.536Z,70.38
2019-04-04T04:40:53.741Z,70.31
2019-04-04T04:43:19.855Z,70.33
2019-04-04T04:45:46.160Z,70.72
2019-04-04T04:48:12.261Z,71.49
2019-04-04T04:50:40.465Z,71.35
2019-04-04T04:53:06.466Z,71.24
2019-04-04T04:55:32.741Z,71.12
2019-04-04T04:57:58.898Z,71.34
2019-04-04T05:00:27.789Z,72.40
2019-04-04T05:02:53.803Z,72.87
2019-04-04T05:05:20.030Z,72.88
2019-04-04T05:07:46.270Z,72.66
2019-04-04T05:10:12.959Z,73.15
2019-04-04T05:12:41.318Z,73.68
2019-04-04T05:15:07.696Z,74.17
2019-04-04T05:17:33.946Z,73.55
2019-04-04T05:20:00.242Z,73.71
2019-04-04T05:22:26.478Z,73.96
2019-04-04T05:25:07.109Z,74.16
2019-04-04T05:27:20.949Z,74.03
2019-04-04T05:29:47.634Z,74.20
2019-04-04T05:32:13.852Z,74.27
2019-04-04T05:34:40.193Z,73.93
2019-04-04T05:37:07.275Z,73.72
2019-04-04T05:39:35.233Z,73.71
2019-04-04T05:42:01.310Z,73.59
2019-04-04T05:44:27.530Z,73.50
2019-04-04T05:46:53.618Z,73.38
2019-04-04T05:49:19.842Z,73.22
2019-04-04T05:51:46.315Z,73.44
2019-04-04T05:54:14.132Z,73.89
2019-04-04T05:56:40.220Z,73.80
2019-04-04T05:59:06.942Z,73.74
2019-04-04T06:01:35.325Z,73.70
2019-04-04T06:04:03.821Z,73.30
2019-04-04T06:06:31.168Z,73.32
2019-04-04T06:08:58.434Z,73.03
2019-04-04T06:11:24.731Z,72.76
2019-04-04T06:13:50.838Z,72.64
2019-04-04T06:16:17.040Z,72.35
2019-04-04T06:18:43.638Z,72.20
2019-04-04T06:21:09.872Z,72.15
2019-04-04T06:23:36.024Z,70.48
2019-04-04T06:26:06.336Z,69.52
2019-04-04T06:28:30.457Z,69.25
2019-04-04T06:30:56.624Z,68.93
2019-04-04T06:33:23.928Z,67.52
2019-04-04T06:35:50.142Z,67.51
2019-04-04T06:38:17.315Z,67.04
2019-04-04T06:40:43.514Z,66.84
2019-04-04T06:43:11.524Z,66.58
2019-04-04T06:45:37.731Z,66.18
2019-04-04T06:48:04.046Z,65.78
2019-04-04T06:50:30.189Z,65.90
2019-04-04T06:52:56.772Z,65.59
2019-04-04T06:55:23.105Z,65.33
2019-04-04T06:57:51.251Z,65.34
2019-04-04T07:00:17.901Z,64.86
2019-04-04T07:02:44.062Z,65.07
2019-04-04T07:05:10.975Z,65.02
2019-04-04T07:07:37.327Z,64.88
2019-04-04T07:10:04.331Z,64.77
2019-04-04T07:12:31.575Z,64.40
2019-04-04T07:14:57.802Z,64.38
2019-04-04T07:17:24.246Z,63.56
2019-04-04T07:19:50.568Z,63.61
2019-04-04T07:22:16.675Z,63.72
2019-04-04T07:24:42.883Z,64.08
2019-04-04T07:27:09.025Z,63.39
2019-04-04T07:29:35.216Z,63.57
2019-04-04T07:32:01.311Z,63.43
2019-04-04T07:34:27.528Z,63.45
2019-04-04T07:36:53.653Z,63.66
2019-04-04T07:39:19.889Z,62.03
2019-04-04T07:41:45.984Z,62.04
2019-04-04T07:44:12.246Z,62.32
2019-04-04T07:46:40.910Z,61.75
2019-04-04T07:49:06.477Z,61.35
2019-04-04T07:51:32.652Z,61.16
2019-04-04T07:53:58.830Z,61.27
2019-04-04T07:56:25.083Z,61.66
2019-04-04T07:58:51.227Z,62.02
2019-04-04T08:01:17.540Z,62.07
2019-04-04T08:03:43.630Z,62.16
2019-04-04T08:06:09.833Z,60.80
2019-04-04T08:08:35.995Z,59.62
2019-04-04T08:11:02.459Z,59.01
2019-04-04T08:13:28.722Z,58.97
2019-04-04T08:15:56.369Z,58.46
2019-04-04T08:18:22.654Z,58.41
2019-04-04T08:20:48.857Z,57.81
2019-04-04T08:23:15.195Z,56.87
2019-04-04T08:25:41.332Z,56.79
2019-04-04T08:28:07.568Z,56.02
2019-04-04T08:30:33.833Z,54.91
2019-04-04T08:33:00.111Z,53.38
2019-04-04T08:35:26.210Z,53.57
2019-04-04T08:37:52.517Z,51.28
2019-04-04T08:40:18.780Z,51.82
2019-04-04T08:42:44.990Z,51.50
2019-04-04T08:45:12.361Z,51.22
2019-04-04T08:47:38.574Z,50.84
2019-04-04T08:50:05.338Z,50.54
2019-04-04T08:52:31.578Z,50.51
2019-04-04T08:54:57.920Z,49.05
2019-04-04T08:57:24.398Z,48.33
2019-04-04T08:59:50.582Z,48.69
2019-04-04T09:02:16.836Z,48.25
2019-04-04T09:04:43.006Z,49.24
2019-04-04T09:07:09.099Z,48.17
2019-04-04T09:09:35.331Z,46.82
2019-04-04T09:12:01.682Z,48.02
2019-04-04T09:14:27.854Z,47.11
2019-04-04T09:16:54.143Z,46.83
2019-04-04T09:19:20.420Z,46.31
2019-04-04T09:21:46.639Z,46.08
2019-04-04T09:24:13.412Z,46.85
2019-04-04T09:26:39.754Z,44.50
2019-04-04T09:29:05.850Z,44.29
2019-04-04T09:31:32.039Z,43.33
2019-04-04T09:33:58.127Z,42.67
2019-04-04T09:36:24.724Z,42.38
2019-04-04T09:38:51.888Z,40.37
2019-04-04T09:41:18.209Z,39.30
2019-04-04T09:43:45.402Z,40.62
2019-04-04T09:46:11.594Z,40.85
2019-04-04T09:48:37.732Z,39.00
2019-04-04T09:51:03.895Z,39.36
2019-04-04T09:53:30.060Z,38.22
2019-04-04T09:55:56.299Z,38.80
2019-04-04T09:58:22.408Z,37.01
2019-04-04T10:00:49.830Z,38.73
2019-04-04T10:03:15.987Z,38.94
2019-04-04T10:05:42.133Z,36.92
2019-04-04T10:08:08.475Z,37.21
2019-04-04T10:10:34.762Z,35.61
2019-04-04T10:13:00.926Z,35.61
2019-04-04T10:15:27.208Z,34.37
2019-04-04T10:17:53.383Z,35.28
2019-04-04T10:20:19.523Z,35.03
2019-04-04T10:22:45.732Z,35.30
2019-04-04T10:25:12.174Z,35.00
2019-04-04T10:27:38.368Z,34.06
2019-04-04T10:30:08.113Z,32.39
2019-04-04T10:32:34.478Z,33.31
2019-04-04T10:35:00.879Z,33.59
2019-04-04T10:37:27.156Z,33.84
2019-04-04T10:39:53.640Z,33.83
2019-04-04T10:42:19.851Z,33.84
2019-04-04T10:44:47.261Z,33.65
2019-04-04T10:47:13.451Z,32.49
2019-04-04T10:49:39.666Z,32.47
2019-04-04T10:52:05.922Z,30.43
2019-04-04T10:54:32.140Z,30.09
2019-04-04T10:56:58.396Z,27.95
2019-04-04T10:59:24.771Z,27.31
2019-04-04T11:01:50.927Z,27.16
2019-04-04T11:04:17.114Z,26.59
2019-04-04T11:06:43.279Z,25.59
2019-04-04T11:09:09.664Z,24.86
2019-04-04T11:11:36.036Z,23.68
2019-04-04T11:14:02.431Z,23.75
2019-04-04T11:16:30.402Z,23.81
2019-04-04T11:18:56.644Z,23.30
2019-04-04T11:21:23.008Z,23.38
2019-04-04T11:23:49.263Z,22.75
2019-04-04T11:26:15.522Z,21.40
2019-04-04T11:28:41.796Z,21.60
2019-04-04T11:31:08.161Z,21.55
2019-04-04T11:33:34.465Z,21.49
2019-04-04T11:36:00.641Z,21.55
2019-04-04T11:38:26.954Z,22.52
2019-04-04T11:40:53.132Z,22.21
2019-04-04T11:43:19.323Z,22.17
2019-04-04T11:45:45.481Z,22.58
2019-04-04T11:48:11.659Z,22.50
2019-04-04T11:50:39.747Z,22.30
2019-04-04T11:53:05.863Z,22.80
2019-04-04T11:55:32.026Z,21.97
2019-04-04T11:57:58.301Z,21.38
2019-04-04T12:00:26.419Z,22.06
2019-04-04T12:02:52.563Z,21.19
2019-04-04T12:05:18.812Z,21.38
2019-04-04T12:07:44.918Z,20.96
2019-04-04T12:10:11.518Z,21.46
2019-04-04T12:12:37.828Z,19.93
2019-04-04T12:15:05.834Z,19.93
2019-04-04T12:17:32.210Z,21.00
2019-04-04T12:19:58.439Z,20.97
2019-04-04T12:22:24.827Z,21.11
2019-04-04T12:24:51.285Z,19.65
2019-04-04T12:27:17.458Z,19.33
2019-04-04T12:29:43.734Z,19.92
2019-04-04T12:32:10.369Z,21.08
2019-04-04T12:34:36.813Z,20.01
2019-04-04T12:37:03.164Z,21.17
2019-04-04T12:39:29.431Z,21.08
2019-04-04T12:41:55.624Z,20.95
2019-04-04T12:44:21.753Z,20.42
2019-04-04T12:46:48.115Z,20.06
2019-04-04T12:49:14.288Z,19.57
2019-04-04T12:51:40.527Z,19.54
2019-04-04T12:54:06.874Z,19.55
2019-04-04T12:56:33.139Z,19.48
2019-04-04T12:58:59.343Z,20.08
2019-04-04T13:01:25.447Z,19.49
2019-04-04T13:03:51.681Z,19.41
2019-04-04T13:06:18.774Z,18.30
2019-04-04T13:08:44.997Z,19.27
2019-04-04T13:11:11.162Z,19.47
2019-04-04T13:13:38.360Z,18.92
2019-04-04T13:16:05.743Z,17.97
2019-04-04T13:18:32.020Z,19.23
2019-04-04T13:20:58.332Z,19.24
2019-04-04T13:23:24.659Z,19.14
2019-04-04T13:25:50.872Z,18.92
2019-04-04T13:28:17.037Z,19.43
2019-04-04T13:30:43.198Z,18.54
2019-04-04T13:33:09.365Z,19.00
2019-04-04T13:35:37.560Z,19.04
2019-04-04T13:38:03.988Z,20.19
2019-04-04T13:40:30.181Z,20.17
2019-04-04T13:42:56.405Z,21.03
2019-04-04T13:45:24.756Z,20.57
2019-04-04T13:47:50.630Z,20.58
2019-04-04T13:50:20.450Z,21.17
2019-04-04T13:52:46.648Z,20.70
2019-04-04T13:55:12.835Z,21.21
2019-04-04T13:57:39.571Z,20.88
2019-04-04T14:00:08.093Z,21.05
2019-04-04T14:02:34.469Z,20.71
2019-04-04T14:05:09.792Z,21.41
2019-04-04T14:07:29.916Z,22.08
2019-04-04T14:09:56.167Z,21.83
2019-04-04T14:12:22.384Z,22.44
2019-04-04T14:14:48.554Z,23.22
2019-04-04T14:17:14.821Z,22.75
2019-04-04T14:19:41.044Z,22.78
2019-04-04T14:22:07.243Z,22.13
2019-04-04T14:24:33.570Z,22.95
2019-04-04T14:26:59.755Z,24.01
2019-04-04T14:29:27.654Z,23.29
2019-04-04T14:31:54.019Z,22.86
2019-04-04T14:34:20.241Z,23.23
2019-04-04T14:36:46.430Z,23.46
2019-04-04T14:39:12.700Z,23.09
2019-04-04T14:41:39.064Z,23.59
2019-04-04T14:44:05.234Z,23.91
2019-04-04T14:46:31.450Z,23.27
2019-04-04T14:48:57.552Z,22.70
2019-04-04T14:51:23.757Z,23.58
2019-04-04T14:53:50.014Z,23.89
2019-04-04T14:56:16.249Z,23.88
2019-04-04T14:58:42.385Z,22.95
2019-04-04T15:01:08.549Z,23.69
2019-04-04T15:03:34.805Z,23.35
2019-04-04T15:06:01.072Z,23.51
2019-04-04T15:08:27.241Z,23.23
2019-04-04T15:10:53.574Z,23.14
2019-04-04T15:13:20.052Z,23.37
2019-04-04T15:16:11.781Z,23.63
2019-04-04T15:18:37.976Z,24.70
2019-04-04T15:21:05.790Z,26.05
2019-04-04T15:23:32.087Z,26.13
2019-04-04T15:25:58.429Z,25.93
2019-04-04T15:28:26.094Z,24.64
2019-04-04T15:30:52.614Z,24.39
2019-04-04T15:33:18.861Z,24.94
2019-04-04T15:35:45.062Z,25.82
2019-04-04T15:38:11.245Z,26.81
2019-04-04T15:40:37.527Z,27.32
2019-04-04T15:43:03.792Z,28.10
2019-04-04T15:45:30.083Z,28.20
2019-04-04T15:47:56.292Z,28.88
2019-04-04T15:50:22.390Z,29.46
2019-04-04T15:52:48.686Z,29.53
2019-04-04T15:55:14.789Z,30.16
2019-04-04T15:57:41.002Z,30.05
2019-04-04T16:00:08.175Z,30.82
2019-04-04T16:02:34.423Z,30.98
2019-04-04T16:05:00.701Z,30.94
2019-04-04T16:07:26.996Z,31.13
2019-04-04T16:09:53.110Z,31.12
2019-04-04T16:12:19.465Z,31.41
2019-04-04T16:14:45.710Z,31.87
2019-04-04T16:17:12.167Z,32.28
2019-04-04T16:19:38.443Z,33.10
2019-04-04T16:22:04.645Z,33.23
2019-04-04T16:24:30.806Z,33.83
2019-04-04T16:26:57.029Z,33.64
2019-04-04T16:29:23.208Z,34.17
2019-04-04T16:31:49.435Z,34.03
2019-04-04T16:34:15.547Z,34.85
2019-04-04T16:36:41.866Z,35.63
2019-04-04T16:39:08.070Z,35.63
2019-04-04T16:41:34.271Z,36.18
2019-04-04T16:44:00.469Z,36.81
2019-04-04T16:46:26.718Z,36.60
2019-04-04T16:48:52.952Z,36.27
2019-04-04T16:51:19.054Z,37.04
2019-04-04T16:53:45.275Z,37.01
2019-04-04T16:56:12.570Z,37.74
2019-04-04T16:58:38.871Z,37.76
2019-04-04T17:01:05.112Z,38.63
2019-04-04T17:03:34.160Z,38.44
2019-04-04T17:06:02.291Z,38.70
2019-04-04T17:08:28.573Z,39.39
2019-04-04T17:10:54.806Z,39.57
2019-04-04T17:13:20.974Z,40.09
2019-04-04T17:15:47.173Z,40.42
2019-04-04T17:18:13.426Z,40.84
2019-04-04T17:20:39.634Z,41.12
2019-04-04T17:23:05.860Z,41.81
2019-04-04T17:25:32.036Z,42.76
2019-04-04T17:27:59.231Z,42.78
2019-04-04T17:30:25.579Z,43.12
2019-04-04T17:32:51.939Z,43.33
2019-04-04T17:35:18.331Z,44.28
2019-04-04T17:37:44.657Z,44.40
2019-04-04T17:40:11.274Z,45.11
2019-04-04T17:42:37.409Z,45.73
2019-04-04T17:45:08.114Z,45.98
2019-04-04T17:47:34.290Z,46.09
2019-04-04T17:50:00.732Z,46.04
2019-04-04T17:52:26.989Z,46.38
2019-04-04T17:54:53.226Z,46.62
2019-04-04T17:57:20.440Z,46.91
2019-04-04T17:59:46.619Z,47.56
2019-04-04T18:02:12.978Z,47.67
2019-04-04T18:04:48.206Z,48.04
2019-04-04T18:07:07.456Z,48.19
2019-04-04T18:09:33.772Z,48.04
2019-04-04T18:12:00.094Z,48.21
2019-04-04T18:14:26.203Z,48.62
2019-04-04T18:16:52.465Z,49.00
2019-04-04T18:19:18.672Z,48.86
2019-04-04T18:21:44.932Z,49.01
2019-04-04T18:24:11.047Z,49.19
2019-04-04T18:26:37.388Z,49.18
2019-04-04T18:29:03.838Z,49.56
2019-04-04T18:31:30.190Z,49.31
2019-04-04T18:33:56.491Z,49.25
2019-04-04T18:36:23.203Z,49.24
2019-04-04T18:38:49.410Z,49.35
2019-04-04T18:41:15.636Z,49.75
2019-04-04T18:43:41.854Z,50.15
2019-04-04T18:46:08.128Z,49.72
2019-04-04T18:48:34.539Z,49.72
2019-04-04T18:51:00.787Z,49.61
2019-04-04T18:53:27.944Z,49.58
2019-04-04T18:55:54.159Z,49.57
2019-04-04T18:58:20.378Z,49.43
2019-04-04T19:00:46.664Z,49.39
2019-04-04T19:03:12.874Z,49.55
2019-04-04T19:05:39.208Z,49.14
2019-04-04T19:08:05.675Z,48.91
2019-04-04T19:10:32.029Z,48.80
2019-04-04T19:13:05.186Z,49.85
2019-04-04T19:15:26.257Z,51.33
2019-04-04T19:17:52.481Z,51.96
2019-04-04T19:20:19.083Z,52.30
2019-04-04T19:22:45.360Z,53.39
2019-04-04T19:25:13.794Z,53.62
2019-04-04T19:27:40.878Z,53.56
2019-04-04T19:30:08.472Z,53.54
2019-04-04T19:32:35.009Z,54.50
2019-04-04T19:35:01.107Z,56.99
2019-04-04T19:37:27.336Z,57.24
2019-04-04T19:39:54.471Z,57.27
2019-04-04T19:42:20.820Z,57.06
2019-04-04T19:44:53.325Z,58.10
2019-04-04T19:47:15.249Z,58.86
2019-04-04T19:49:41.343Z,59.99
2019-04-04T19:52:07.611Z,60.31
2019-04-04T19:54:33.984Z,60.92
2019-04-04T19:57:00.251Z,61.82
2019-04-04T19:59:26.440Z,61.72
2019-04-04T20:01:52.540Z,61.69
2019-04-04T20:04:18.772Z,62.61
2019-04-04T20:06:45.034Z,62.57
2019-04-04T20:09:11.357Z,62.91
2019-04-04T20:11:37.570Z,64.02
2019-04-04T20:14:03.790Z,63.56
2019-04-04T20:16:29.910Z,63.32
2019-04-04T20:18:56.223Z,63.54
2019-04-04T20:21:22.431Z,63.33
2019-04-04T20:23:48.683Z,63.43
2019-04-04T20:26:19.303Z,63.53
2019-04-04T20:28:46.278Z,63.99
2019-04-04T20:31:12.526Z,63.95
2019-04-04T20:33:38.772Z,64.20
2019-04-04T20:36:04.996Z,64.04
2019-04-04T20:38:31.139Z,64.36
2019-04-04T20:40:57.420Z,64.56
2019-04-04T20:43:23.723Z,65.09
2019-04-04T20:45:50.415Z,64.81
2019-04-04T20:48:16.580Z,64.79
2019-04-04T20:50:42.842Z,65.01
2019-04-04T20:53:09.048Z,65.42
2019-04-04T20:55:35.146Z,65.17
2019-04-04T20:58:02.426Z,65.61
2019-04-04T21:00:28.580Z,65.87
2019-04-04T21:02:54.835Z,65.98
2019-04-04T21:05:20.985Z,65.96
2019-04-04T21:07:47.123Z,65.80
2019-04-04T21:10:13.374Z,66.10
2019-04-04T21:12:39.670Z,66.23
2019-04-04T21:15:06.297Z,66.39
2019-04-04T21:17:32.615Z,66.48
2019-04-04T21:19:58.783Z,66.53
2019-04-04T21:22:27.654Z,66.35
2019-04-04T21:24:53.263Z,66.36
2019-04-04T21:27:19.565Z,67.27
2019-04-04T21:29:45.726Z,67.75
2019-04-04T21:32:11.895Z,67.51
2019-04-04T21:34:38.051Z,67.80
2019-04-04T21:37:04.276Z,67.67
2019-04-04T21:39:30.528Z,67.77
2019-04-04T21:41:56.856Z,67.48
2019-04-04T21:44:22.971Z,67.75
2019-04-04T21:46:49.185Z,67.40
2019-04-04T21:49:15.339Z,67.35
2019-04-04T21:51:41.542Z,67.46
2019-04-04T21:54:07.691Z,67.22
2019-04-04T21:56:33.902Z,67.28
2019-04-04T21:59:00.113Z,67.08
2019-04-04T22:01:26.274Z,66.97
2019-04-04T22:03:53.597Z,67.23
2019-04-04T22:06:19.772Z,67.05
2019-04-04T22:08:45.966Z,67.19
2019-04-04T22:11:12.183Z,67.18
2019-04-04T22:13:38.510Z,67.15
2019-04-04T22:16:05.119Z,66.93
2019-04-04T22:18:31.337Z,67.10
2019-04-04T22:20:57.481Z,67.25
2019-04-04T22:23:23.737Z,67.58
2019-04-04T22:25:49.941Z,67.11
2019-04-04T22:28:16.264Z,67.43
2019-04-04T22:30:42.977Z,67.73
2019-04-04T22:33:09.063Z,67.80
2019-04-04T22:35:35.260Z,68.19
2019-04-04T22:38:01.567Z,68.47
2019-04-04T22:40:27.791Z,68.94
2019-04-04T22:42:53.997Z,68.74
2019-04-04T22:45:20.186Z,68.99
2019-04-04T22:47:46.357Z,69.29
2019-04-04T22:50:12.842Z,69.53
2019-04-04T22:52:39.095Z,69.43
2019-04-04T22:55:05.975Z,69.41
2019-04-04T22:57:32.239Z,69.48
2019-04-04T22:59:58.493Z,69.57
2019-04-04T23:02:25.101Z,69.86
2019-04-04T23:04:51.218Z,70.12
2019-04-04T23:07:17.451Z,69.99
2019-04-04T23:09:43.624Z,69.81
2019-04-04T23:12:09.838Z,69.99
2019-04-04T23:14:47.525Z,69.99
2019-04-04T23:17:04.041Z,69.87
2019-04-04T23:19:30.209Z,69.96
2019-04-04T23:21:56.427Z,70.16
2019-04-04T23:24:22.540Z,70.24
2019-04-04T23:26:48.787Z,70.32
2019-04-04T23:29:14.989Z,70.26
2019-04-04T23:31:41.109Z,70.22
2019-04-04T23:34:07.297Z,70.18
2019-04-04T23:36:35.269Z,70.16
2019-04-04T23:39:01.703Z,70.19
2019-04-04T23:41:29.707Z,70.00
2019-04-04T23:43:55.911Z,70.18
2019-04-04T23:46:22.135Z,70.06
2019-04-04T23:48:48.305Z,70.39
2019-04-04T23:51:14.475Z,70.04
2019-04-04T23:53:40.645Z,69.79
2019-04-04T23:56:06.806Z,69.92
2019-04-04T23:58:33.088Z,69.87
